Redondo, Valles Caldera, New Mexico Weather observations

Data are for 10 minute period ending at time listed.
 Day   Time   Solar   Ave.   Ave.  Ave.  Vector  Max.   Baro.   Total    
  of    of     Rad.   Air    Rel.  Wind   Wind   Wind  Press.  Precip.   
Year   Day            Temp.  Hum.  Speed  Dir.   Gust                    
2017   (MST)  Kw/m2    F      %     mph   deg.    mph    mb.     in.     
-------------------------------------------------------------------------
 327    5:30   0.00   38.4    45    3.7   295     7.8   695.6    0.00 
 327    5:40   0.00   38.7    45    4.1   301     9.6   695.5    0.00 
 327    5:50   0.00   38.6    46    3.1   293     7.2   695.5    0.00 
 327    6:00   0.00   39.0    45    4.0   293     6.6   695.6    0.00 
 327    6:10   0.00   39.1    45    4.4   264     9.0   695.6    0.00 
 327    6:20   0.00   39.3    44    3.6   271     6.6   695.6    0.00 
 327    6:30   0.00   38.4    44    3.3   285     5.4   695.6    0.00 
 327    6:40   0.00   39.3    43    2.7   295     7.2   695.6    0.00 
 327    6:50   0.00   38.5    46    3.4   288     6.0   695.6    0.00 
 327    7:00   0.01   37.9    49    3.4   280     6.6   695.7    0.00 
 327    7:10   0.01   37.8    48    2.9   261     6.0   695.7    0.00 
 327    7:20   0.02   38.1    47    2.7   246     4.2   695.7    0.00 
 327    7:30   0.03   38.8    44    2.9   253     4.2   695.7    0.00 
 327    7:40   0.04   39.3    41    2.4   244     3.6   695.7    0.00 
 327    7:50   0.06   40.1    39    2.7   261     4.8   695.7    0.00 
 327    8:00   0.09   40.6    40    2.3   260     4.8   695.9    0.00 
 327    8:10   0.13   41.5    40    2.3   271     4.2   695.9    0.00 
 327    8:20   0.17   42.7    37    2.6   284     4.8   695.9    0.00 
 327    8:30   0.23   44.4    34    3.6   310     8.4   696.0    0.00 
 327    8:40   0.26   46.0    33    3.4   305     6.6   696.0    0.00 
 327    8:50   0.25   47.4    32    3.5   319     6.6   696.0    0.00 
 327    9:00   0.22   47.2    32    3.2   316     5.4   696.0    0.00 
 327    9:10   0.28   47.4    32    3.4   315     7.8   696.0    0.00 
 327    9:20   0.36   48.9    31    3.7   320     6.0   696.0    0.00 
 327    9:30   0.38   50.4    29    3.6   316     6.6   695.9    0.00 
 327    9:40   0.40   50.6    29    3.5   322     6.6   695.9    0.00 
 327    9:50   0.43   53.0    26    4.1   323     7.8   695.9    0.00 
 327   10:00   0.49   52.4    27    3.9   315     6.6   695.8    0.00 
 327   10:10   0.51   52.5    26    3.7   317     7.2   695.8    0.00 
 327   10:20   0.53   53.3    25    3.8   309     6.6   695.7    0.00 
 327   10:30   0.55   54.7    24    3.7   315     6.6   695.6    0.00 
 327   10:40   0.56   54.2    24    4.0   306     8.4   695.5    0.00 
 327   10:50   0.57   53.5    25    4.1   308     7.8   695.4    0.00 
 327   11:00   0.57   55.3    23    4.5   312     7.2   695.3    0.00 
 327   11:10   0.58   56.0    20    4.9   315     8.4   695.3    0.00 
 327   11:20   0.58   55.0    21    3.8   315     7.8   695.2    0.00 
 327   11:30   0.59   56.9    19    4.7   316    10.2   695.1    0.00 
 327   11:40   0.61   56.7    18    4.1   317     9.0   694.9    0.00 
 327   11:50   0.61   57.5    18    4.3   320     9.0   694.7    0.00 
 327   12:00   0.62   58.4    19    4.2   314     8.4   694.6    0.00 
 327   12:10   0.59   57.6    22    4.2   304     7.8   694.4    0.00 
 327   12:20   0.56   54.1    27    4.4   292     7.2   694.3    0.00 
 327   12:30   0.55   54.3    27    4.2   298     7.8   694.3    0.00 
 327   12:40   0.46   53.7    29    4.6   295     9.0   694.3    0.00 
 327   12:50   0.37   52.3    30    3.9   304     7.2   694.1    0.00 
 327   13:00   0.38   53.4    30    4.2   309     6.6   694.0    0.00 
 327   13:10   0.54   53.8    30    5.0   298    10.2   694.0    0.00 
 327   13:20   0.31   52.9    31    4.7   298     9.6   693.9    0.00 
 327   13:30   0.31   53.4    31    4.3   310     7.8   693.8    0.00 
 327   13:40   0.44   53.8    30    4.7   301     9.0   693.7    0.00 
 327   13:50   0.51   54.3    30    4.4   307     7.8   693.6    0.00 
 327   14:00   0.49   55.5    28    4.6   300     7.8   693.5    0.00 
 327   14:10   0.43   54.4    30    4.5   299     9.6   693.5    0.00 
 327   14:20   0.44   55.5    29    3.8   305     7.2   693.5    0.00 
 327   14:30   0.42   55.4    29    4.4   302     9.6   693.4    0.00 
 327   14:40   0.36   54.0    31    4.0   303     7.8   693.4    0.00 
 327   14:50   0.37   54.7    30    4.5   302     9.6   693.4    0.00 
 327   15:00   0.33   54.8    30    3.9   306     7.8   693.3    0.00 
 327   15:10   0.32   54.8    30    4.3   302    10.2   693.3    0.00 
 327   15:20   0.27   52.5    32    4.8   293     8.4   693.2    0.00 
 327   15:30   0.25   51.6    34    5.4   294    10.8   693.1    0.00 
 327   15:40   0.16   50.1    35    5.3   299     9.0   693.2    0.00 
 327   15:50   0.17   49.5    36    4.8   305     9.6   693.2    0.00 
 327   16:00   0.13   48.5    38    4.9   301    11.9   693.1    0.00 
 327   16:10   0.10   47.0    40    4.3   302     9.0   693.1    0.00 
 327   16:20   0.05   46.2    41    4.5   306    12.5   693.2    0.00 
 327   16:30   0.04   45.5    42    3.4   310     7.2   693.2    0.00 
 327   16:40   0.02   43.8    44    3.8   306     6.6   693.3    0.00 
 327   16:50   0.01   42.6    46    3.9   305     6.6   693.3    0.00 
 327   17:00   0.00   41.9    46    3.6   303     9.0   693.3    0.00 
 327   17:10   0.00   41.1    47    3.5   305     7.2   693.3    0.00 
 327   17:20   0.00   40.2    48    3.4   303     6.6   693.3    0.00 
 327   17:30   0.00   39.8    49    3.1   303     5.4   693.3    0.00 
 327   17:40   0.00   39.5    48    3.1   305     5.4   693.4    0.00 
 327   17:50   0.00   40.4    39    3.6   301     6.6   693.4    0.00 
 327   18:00   0.00   41.7    32    3.8   298     7.8   693.4    0.00 
 327   18:10   0.00   42.1    29    4.0   292     7.2   693.4    0.00 
 327   18:20   0.00   41.9    28    3.9   292     6.6   693.4    0.00 
 327   18:30   0.00   42.1    25    3.4   300     8.4   693.4    0.00 
 327   18:40   0.00   41.8    24    3.2   302     4.8   693.4    0.00 
 327   18:50   0.00   41.6    24    3.4   298     6.6   693.4    0.00 
 327   19:00   0.00   41.5    23    3.2   305     5.4   693.4    0.00 
 327   19:10   0.00   41.5    23    4.1   303     7.2   693.3    0.00 
 327   19:20   0.00   41.8    22    4.1   301     7.8   693.4    0.00 
 327   19:30   0.00   41.9    21    4.3   303     9.6   693.4    0.00 
 327   19:40   0.00   42.1    20    4.3   305     7.8   693.3    0.00 
 327   19:50   0.00   41.8    20    4.1   299    11.3   693.3    0.00 
 327   20:00   0.00   42.1    20    5.2   301    11.9   693.3    0.00 
 327   20:10   0.00   42.4    19    5.2   305    10.2   693.3    0.00 
 327   20:20   0.00   42.2    19    5.0   305     9.0   693.2    0.00 
 327   20:30   0.00   42.5    19    6.3   308    13.7   693.2    0.00 
 327   20:40   0.00   42.8    18    6.8   312    13.1   693.1    0.00 
 327   20:50   0.00   42.4    18    5.1   309    10.8   693.1    0.00 
 327   21:00   0.00   42.1    17    5.3   306    10.8   693.1    0.00 
 327   21:10   0.00   42.3    17    5.6   308    14.9   693.0    0.00 
 327   21:20   0.00   42.6    17    5.8   307    10.8   692.9    0.00 
 327   21:30   0.00   42.1    18    5.3   301    10.2   692.9    0.00 
 327   21:40   0.00   41.8    18    5.1   300    16.7   692.9    0.00 
 327   21:50   0.00   41.7    17    4.8   298    10.2   692.9    0.00 
 327   22:00   0.00   41.5    17    4.4   294     8.4   692.9    0.00 
 327   22:10   0.00   41.6    17    5.0   308     9.0   692.9    0.00 
 327   22:20   0.00   42.4    15    5.0   309     9.0   692.8    0.00 
 327   22:30   0.00   42.0    15    4.0   305     7.2   692.8    0.00 
 327   22:40   0.00   41.9    15    5.0   314    10.2   692.8    0.00 
 327   22:50   0.00   41.5    16    4.0   305     7.8   692.8    0.00 
 327   23:00   0.00   41.1    17    4.0   302     7.8   692.7    0.00 
 327   23:10   0.00   41.3    18    4.5   300     9.0   692.6    0.00 
 327   23:20   0.00   41.2    19    4.0   306    11.9   692.6    0.00 
 327   23:30   0.00   40.7    20    3.6   306     6.6   692.5    0.00 
 327   23:40   0.00   41.0    20    5.0   309    10.2   692.4    0.00 
 327   23:50   0.00   41.6    20    4.9   308    13.1   692.3    0.00 
 328    0:00   0.00   41.0    21    4.1   306     7.8   692.3    0.00 
 328    0:10   0.00   40.3    21    3.8   302     9.0   692.2    0.00 
 328    0:20   0.00   40.3    22    4.0   300     7.2   692.1    0.00 
 328    0:30   0.00   40.9    22    4.2   308     8.4   692.1    0.00 
 328    0:40   0.00   40.8    23    5.1   308    10.2   692.1    0.00 
 328    0:50   0.00   41.7    22    6.1   312    14.3   691.9    0.00 
 328    1:00   0.00   42.1    22    5.9   311    13.1   691.8    0.00 
 328    1:10   0.00   42.5    21    6.8   315    12.5   691.7    0.00 
 328    1:20   0.00   41.8    22    5.2   308    12.5   691.7    0.00 
 328    1:30   0.00   41.3    22    5.4   314    12.5   691.6    0.00 
 328    1:40   0.00   41.4    22    5.8   313    10.2   691.6    0.00 
 328    1:50   0.00   41.3    22    5.6   311    10.8   691.5    0.00 
 328    2:00   0.00   41.4    22    5.7   311    10.8   691.5    0.00 
 328    2:10   0.00   41.1    22    5.5   311    13.1   691.4    0.00 
 328    2:20   0.00   41.4    21    6.7   314    14.3   691.3    0.00 
 328    2:30   0.00   41.8    21    6.0   311    12.5   691.3    0.00 
 328    2:40   0.00   41.9    21    6.9   313    15.5   691.2    0.00 
 328    2:50   0.00   41.8    21    6.5   312    19.1   691.1    0.00 
 328    3:00   0.00   41.6    21    6.7   313    13.1   691.1    0.00 
 328    3:10   0.00   42.0    20    7.0   309    16.1   691.0    0.00 
 328    3:20   0.00   41.7    21    6.5   315    12.5   690.8    0.00 
 328    3:30   0.00   41.4    22    6.7   316    12.5   690.7    0.00 
 328    3:40   0.00   41.4    21    6.0   311    11.3   690.6    0.00 
 328    3:50   0.00   40.9    22    5.9   318    10.8   690.5    0.00 
 328    4:00   0.00   40.3    23    6.5   311    11.3   690.4    0.00 
 328    4:10   0.00   40.6    22    6.9   313    13.7   690.3    0.00 
 328    4:20   0.00   40.3    22    6.8   311    16.1   690.3    0.00 
 328    4:30   0.00   39.9    23    6.9   310    13.7   690.2    0.00 
 328    4:40   0.00   39.9    23    7.1   310    14.3   690.2    0.00 
 328    4:50   0.00   39.8    23    7.0   311    16.1   690.2    0.00 
 328    5:00   0.00   39.8    23    7.1   308    13.1   690.1    0.00 
 328    5:10   0.00   40.2    21    8.0   311    17.3   690.0    0.00 
 328    5:20   0.00   40.6    18    8.8   308    19.1   690.0    0.00 

Return to Redondo, Valles Caldera graphs page.


Western Regional Climate Center,wrcc@dri.edu